sensor_id;sensor_type;location;lat;lon;timestamp;P1;durP1;ratioP1;P2;durP2;ratioP2
41219;SDS011;26951;47.338;9.196;2023-09-19T00:01:10;1.90;;;1.50;;
41219;SDS011;26951;47.338;9.196;2023-09-19T00:03:56;1.50;;;1.40;;
41219;SDS011;26951;47.338;9.196;2023-09-19T00:06:41;2.85;;;1.77;;
41219;SDS011;26951;47.338;9.196;2023-09-19T00:09:27;1.65;;;1.20;;
41219;SDS011;26951;47.338;9.196;2023-09-19T00:12:12;3.10;;;1.30;;
41219;SDS011;26951;47.338;9.196;2023-09-19T00:14:57;2.47;;;1.30;;
41219;SDS011;26951;47.338;9.196;2023-09-19T00:17:41;2.85;;;1.30;;
41219;SDS011;26951;47.338;9.196;2023-09-19T00:20:27;1.20;;;1.10;;
41219;SDS011;26951;47.338;9.196;2023-09-19T00:23:13;2.45;;;1.40;;
41219;SDS011;26951;47.338;9.196;2023-09-19T00:26:00;1.87;;;1.43;;
41219;SDS011;26951;47.338;9.196;2023-09-19T00:28:44;2.47;;;1.30;;
41219;SDS011;26951;47.338;9.196;2023-09-19T00:31:28;2.95;;;1.27;;
41219;SDS011;26951;47.338;9.196;2023-09-19T00:34:13;2.13;;;1.70;;
41219;SDS011;26951;47.338;9.196;2023-09-19T00:36:58;2.85;;;1.30;;
41219;SDS011;26951;47.338;9.196;2023-09-19T00:39:42;1.67;;;1.20;;
41219;SDS011;26951;47.338;9.196;2023-09-19T00:42:27;2.45;;;1.48;;
41219;SDS011;26951;47.338;9.196;2023-09-19T00:45:12;2.92;;;1.35;;
41219;SDS011;26951;47.338;9.196;2023-09-19T00:47:59;2.47;;;1.27;;
41219;SDS011;26951;47.338;9.196;2023-09-19T00:50:47;1.48;;;1.27;;
41219;SDS011;26951;47.338;9.196;2023-09-19T00:53:32;1.80;;;1.35;;
41219;SDS011;26951;47.338;9.196;2023-09-19T00:56:18;2.05;;;1.40;;
41219;SDS011;26951;47.338;9.196;2023-09-19T00:59:02;2.22;;;1.30;;
41219;SDS011;26951;47.338;9.196;2023-09-19T01:02:05;1.77;;;1.60;;
41219;SDS011;26951;47.338;9.196;2023-09-19T01:04:50;2.80;;;2.00;;
41219;SDS011;26951;47.338;9.196;2023-09-19T01:07:34;1.70;;;1.52;;
41219;SDS011;26951;47.338;9.196;2023-09-19T01:10:20;2.67;;;1.35;;
41219;SDS011;26951;47.338;9.196;2023-09-19T01:13:09;2.72;;;1.50;;
41219;SDS011;26951;47.338;9.196;2023-09-19T01:16:16;2.08;;;1.88;;
41219;SDS011;26951;47.338;9.196;2023-09-19T01:22:21;2.63;;;1.80;;
41219;SDS011;26951;47.338;9.196;2023-09-19T01:31:13;2.45;;;1.60;;
41219;SDS011;26951;47.338;9.196;2023-09-19T01:34:01;2.10;;;1.63;;
41219;SDS011;26951;47.338;9.196;2023-09-19T01:36:48;1.88;;;1.35;;
41219;SDS011;26951;47.338;9.196;2023-09-19T01:39:32;2.20;;;1.75;;
41219;SDS011;26951;47.338;9.196;2023-09-19T01:42:24;1.58;;;1.42;;
41219;SDS011;26951;47.338;9.196;2023-09-19T01:45:24;3.50;;;1.50;;
41219;SDS011;26951;47.338;9.196;2023-09-19T01:51:51;3.05;;;1.50;;
41219;SDS011;26951;47.338;9.196;2023-09-19T01:54:47;2.08;;;1.42;;
41219;SDS011;26951;47.338;9.196;2023-09-19T01:57:35;2.15;;;1.23;;
41219;SDS011;26951;47.338;9.196;2023-09-19T02:00:53;2.17;;;1.58;;
41219;SDS011;26951;47.338;9.196;2023-09-19T02:03:39;2.15;;;1.70;;
41219;SDS011;26951;47.338;9.196;2023-09-19T02:06:24;1.73;;;1.63;;
41219;SDS011;26951;47.338;9.196;2023-09-19T02:09:08;2.65;;;1.55;;
41219;SDS011;26951;47.338;9.196;2023-09-19T02:11:53;2.58;;;1.30;;
41219;SDS011;26951;47.338;9.196;2023-09-19T02:14:39;2.83;;;1.55;;
41219;SDS011;26951;47.338;9.196;2023-09-19T02:17:25;5.63;;;1.42;;
41219;SDS011;26951;47.338;9.196;2023-09-19T02:20:10;1.90;;;1.48;;
41219;SDS011;26951;47.338;9.196;2023-09-19T02:22:58;1.65;;;1.40;;
41219;SDS011;26951;47.338;9.196;2023-09-19T02:25:42;1.63;;;1.30;;
41219;SDS011;26951;47.338;9.196;2023-09-19T02:28:28;3.67;;;1.30;;
41219;SDS011;26951;47.338;9.196;2023-09-19T02:31:14;2.25;;;1.50;;
41219;SDS011;26951;47.338;9.196;2023-09-19T02:34:00;2.63;;;1.25;;
41219;SDS011;26951;47.338;9.196;2023-09-19T02:36:44;3.00;;;1.77;;
41219;SDS011;26951;47.338;9.196;2023-09-19T02:39:28;1.38;;;1.25;;
41219;SDS011;26951;47.338;9.196;2023-09-19T02:42:12;1.90;;;1.40;;
41219;SDS011;26951;47.338;9.196;2023-09-19T02:44:56;2.38;;;1.45;;
41219;SDS011;26951;47.338;9.196;2023-09-19T02:47:41;2.05;;;1.35;;
41219;SDS011;26951;47.338;9.196;2023-09-19T02:50:25;1.70;;;1.45;;
41219;SDS011;26951;47.338;9.196;2023-09-19T02:53:10;1.98;;;1.40;;
41219;SDS011;26951;47.338;9.196;2023-09-19T02:55:56;2.05;;;1.33;;
41219;SDS011;26951;47.338;9.196;2023-09-19T02:58:40;1.95;;;1.42;;
41219;SDS011;26951;47.338;9.196;2023-09-19T03:01:24;2.80;;;1.40;;
41219;SDS011;26951;47.338;9.196;2023-09-19T03:04:10;1.38;;;1.27;;
41219;SDS011;26951;47.338;9.196;2023-09-19T03:06:54;2.65;;;1.60;;
41219;SDS011;26951;47.338;9.196;2023-09-19T03:09:42;1.98;;;1.48;;
41219;SDS011;26951;47.338;9.196;2023-09-19T03:12:27;1.83;;;1.30;;
41219;SDS011;26951;47.338;9.196;2023-09-19T03:15:11;4.63;;;1.70;;
41219;SDS011;26951;47.338;9.196;2023-09-19T03:17:55;1.45;;;1.35;;
41219;SDS011;26951;47.338;9.196;2023-09-19T03:20:39;2.33;;;1.38;;
41219;SDS011;26951;47.338;9.196;2023-09-19T03:23:23;2.42;;;1.40;;
41219;SDS011;26951;47.338;9.196;2023-09-19T03:26:09;2.00;;;1.50;;
41219;SDS011;26951;47.338;9.196;2023-09-19T03:28:54;4.03;;;1.70;;
41219;SDS011;26951;47.338;9.196;2023-09-19T03:31:38;2.47;;;1.30;;
41219;SDS011;26951;47.338;9.196;2023-09-19T03:34:22;1.58;;;1.30;;
41219;SDS011;26951;47.338;9.196;2023-09-19T03:37:06;3.03;;;1.40;;
41219;SDS011;26951;47.338;9.196;2023-09-19T03:39:50;1.83;;;1.40;;
41219;SDS011;26951;47.338;9.196;2023-09-19T03:42:34;5.35;;;1.90;;
41219;SDS011;26951;47.338;9.196;2023-09-19T03:45:25;1.92;;;1.40;;
41219;SDS011;26951;47.338;9.196;2023-09-19T03:48:09;2.35;;;1.50;;
41219;SDS011;26951;47.338;9.196;2023-09-19T03:50:54;1.40;;;1.30;;
41219;SDS011;26951;47.338;9.196;2023-09-19T03:53:40;1.35;;;1.13;;
41219;SDS011;26951;47.338;9.196;2023-09-19T03:56:24;1.42;;;1.10;;
41219;SDS011;26951;47.338;9.196;2023-09-19T03:59:08;1.88;;;1.40;;
41219;SDS011;26951;47.338;9.196;2023-09-19T04:01:53;1.40;;;1.30;;
41219;SDS011;26951;47.338;9.196;2023-09-19T04:04:40;2.25;;;1.33;;
41219;SDS011;26951;47.338;9.196;2023-09-19T04:07:24;1.65;;;1.40;;
41219;SDS011;26951;47.338;9.196;2023-09-19T04:10:12;2.80;;;1.38;;
41219;SDS011;26951;47.338;9.196;2023-09-19T04:12:58;1.50;;;1.10;;
41219;SDS011;26951;47.338;9.196;2023-09-19T04:15:42;1.67;;;1.30;;
41219;SDS011;26951;47.338;9.196;2023-09-19T04:18:26;1.23;;;1.03;;
41219;SDS011;26951;47.338;9.196;2023-09-19T04:21:11;2.17;;;1.52;;
41219;SDS011;26951;47.338;9.196;2023-09-19T04:23:55;1.77;;;1.05;;
41219;SDS011;26951;47.338;9.196;2023-09-19T04:26:39;1.30;;;1.20;;
41219;SDS011;26951;47.338;9.196;2023-09-19T04:29:23;2.05;;;1.20;;
41219;SDS011;26951;47.338;9.196;2023-09-19T04:32:07;1.77;;;1.05;;
41219;SDS011;26951;47.338;9.196;2023-09-19T04:34:53;3.90;;;1.10;;
41219;SDS011;26951;47.338;9.196;2023-09-19T04:37:37;1.13;;;1.02;;
41219;SDS011;26951;47.338;9.196;2023-09-19T04:40:23;2.58;;;0.95;;
41219;SDS011;26951;47.338;9.196;2023-09-19T04:43:09;1.40;;;1.30;;
41219;SDS011;26951;47.338;9.196;2023-09-19T04:45:54;1.10;;;1.00;;
41219;SDS011;26951;47.338;9.196;2023-09-19T04:48:39;1.10;;;1.00;;
41219;SDS011;26951;47.338;9.196;2023-09-19T04:51:23;1.13;;;1.02;;
41219;SDS011;26951;47.338;9.196;2023-09-19T04:54:07;2.75;;;1.10;;
41219;SDS011;26951;47.338;9.196;2023-09-19T04:56:51;1.65;;;0.90;;
41219;SDS011;26951;47.338;9.196;2023-09-19T04:59:35;0.73;;;0.73;;
41219;SDS011;26951;47.338;9.196;2023-09-19T05:02:20;0.80;;;0.80;;
41219;SDS011;26951;47.338;9.196;2023-09-19T05:05:04;2.05;;;1.20;;
41219;SDS011;26951;47.338;9.196;2023-09-19T05:07:49;1.98;;;1.20;;
41219;SDS011;26951;47.338;9.196;2023-09-19T05:10:35;1.70;;;1.10;;
41219;SDS011;26951;47.338;9.196;2023-09-19T05:13:22;2.95;;;1.35;;
41219;SDS011;26951;47.338;9.196;2023-09-19T05:16:11;1.73;;;1.30;;
41219;SDS011;26951;47.338;9.196;2023-09-19T05:18:55;1.20;;;1.00;;
41219;SDS011;26951;47.338;9.196;2023-09-19T05:21:40;1.35;;;1.00;;
41219;SDS011;26951;47.338;9.196;2023-09-19T05:24:25;1.03;;;0.93;;
41219;SDS011;26951;47.338;9.196;2023-09-19T05:27:10;1.65;;;1.23;;
41219;SDS011;26951;47.338;9.196;2023-09-19T05:29:54;1.25;;;1.00;;
41219;SDS011;26951;47.338;9.196;2023-09-19T05:32:39;1.38;;;1.00;;
41219;SDS011;26951;47.338;9.196;2023-09-19T05:35:23;1.38;;;1.00;;
41219;SDS011;26951;47.338;9.196;2023-09-19T05:38:07;1.75;;;0.93;;
41219;SDS011;26951;47.338;9.196;2023-09-19T05:40:56;1.45;;;0.90;;
41219;SDS011;26951;47.338;9.196;2023-09-19T05:43:40;1.65;;;1.05;;
41219;SDS011;26951;47.338;9.196;2023-09-19T05:46:25;3.78;;;1.38;;
41219;SDS011;26951;47.338;9.196;2023-09-19T05:49:13;1.73;;;1.10;;
41219;SDS011;26951;47.338;9.196;2023-09-19T05:51:57;1.23;;;0.85;;
41219;SDS011;26951;47.338;9.196;2023-09-19T05:54:42;1.67;;;1.00;;
41219;SDS011;26951;47.338;9.196;2023-09-19T05:57:27;1.17;;;0.75;;
41219;SDS011;26951;47.338;9.196;2023-09-19T06:00:11;1.38;;;1.08;;
41219;SDS011;26951;47.338;9.196;2023-09-19T06:02:57;1.13;;;1.00;;
41219;SDS011;26951;47.338;9.196;2023-09-19T06:05:41;3.50;;;0.98;;
41219;SDS011;26951;47.338;9.196;2023-09-19T06:08:25;1.17;;;1.00;;
41219;SDS011;26951;47.338;9.196;2023-09-19T06:11:10;0.93;;;0.93;;
41219;SDS011;26951;47.338;9.196;2023-09-19T06:13:55;1.48;;;0.93;;
41219;SDS011;26951;47.338;9.196;2023-09-19T06:16:39;1.58;;;0.90;;
41219;SDS011;26951;47.338;9.196;2023-09-19T06:19:24;2.15;;;1.08;;
41219;SDS011;26951;47.338;9.196;2023-09-19T06:22:09;1.98;;;1.10;;
41219;SDS011;26951;47.338;9.196;2023-09-19T06:24:54;2.40;;;1.13;;
41219;SDS011;26951;47.338;9.196;2023-09-19T06:27:39;0.85;;;0.85;;
41219;SDS011;26951;47.338;9.196;2023-09-19T06:30:26;0.80;;;0.80;;
41219;SDS011;26951;47.338;9.196;2023-09-19T06:33:13;1.30;;;1.15;;
41219;SDS011;26951;47.338;9.196;2023-09-19T06:35:57;0.82;;;0.80;;
41219;SDS011;26951;47.338;9.196;2023-09-19T06:38:43;1.35;;;1.02;;
41219;SDS011;26951;47.338;9.196;2023-09-19T06:41:29;1.17;;;0.73;;
41219;SDS011;26951;47.338;9.196;2023-09-19T06:46:58;1.00;;;0.90;;
41219;SDS011;26951;47.338;9.196;2023-09-19T06:49:42;0.88;;;0.70;;
41219;SDS011;26951;47.338;9.196;2023-09-19T06:52:28;1.80;;;0.82;;
41219;SDS011;26951;47.338;9.196;2023-09-19T06:55:12;1.30;;;1.07;;
41219;SDS011;26951;47.338;9.196;2023-09-19T06:57:57;1.00;;;0.90;;
41219;SDS011;26951;47.338;9.196;2023-09-19T07:00:42;2.42;;;1.00;;
41219;SDS011;26951;47.338;9.196;2023-09-19T07:03:28;0.70;;;0.70;;
41219;SDS011;26951;47.338;9.196;2023-09-19T07:06:12;1.08;;;0.90;;
41219;SDS011;26951;47.338;9.196;2023-09-19T07:08:56;1.30;;;0.88;;
41219;SDS011;26951;47.338;9.196;2023-09-19T07:11:40;1.77;;;1.17;;
41219;SDS011;26951;47.338;9.196;2023-09-19T07:14:24;1.40;;;0.98;;
41219;SDS011;26951;47.338;9.196;2023-09-19T07:17:09;1.33;;;1.00;;
41219;SDS011;26951;47.338;9.196;2023-09-19T07:19:53;1.15;;;1.05;;
41219;SDS011;26951;47.338;9.196;2023-09-19T07:22:37;1.05;;;0.90;;
41219;SDS011;26951;47.338;9.196;2023-09-19T07:28:07;1.38;;;1.13;;
41219;SDS011;26951;47.338;9.196;2023-09-19T07:30:51;0.80;;;0.70;;
41219;SDS011;26951;47.338;9.196;2023-09-19T07:33:36;1.33;;;0.93;;
41219;SDS011;26951;47.338;9.196;2023-09-19T07:36:20;1.33;;;0.75;;
41219;SDS011;26951;47.338;9.196;2023-09-19T07:39:04;1.00;;;0.90;;
41219;SDS011;26951;47.338;9.196;2023-09-19T07:41:50;1.67;;;1.10;;
41219;SDS011;26951;47.338;9.196;2023-09-19T07:44:35;0.98;;;0.80;;
41219;SDS011;26951;47.338;9.196;2023-09-19T07:47:20;1.80;;;0.90;;
41219;SDS011;26951;47.338;9.196;2023-09-19T07:50:04;0.70;;;0.70;;
41219;SDS011;26951;47.338;9.196;2023-09-19T07:52:51;1.08;;;0.73;;
41219;SDS011;26951;47.338;9.196;2023-09-19T07:55:36;0.80;;;0.73;;
41219;SDS011;26951;47.338;9.196;2023-09-19T07:58:20;0.90;;;0.70;;
41219;SDS011;26951;47.338;9.196;2023-09-19T08:01:07;0.68;;;0.68;;
41219;SDS011;26951;47.338;9.196;2023-09-19T08:03:56;5.07;;;1.58;;
41219;SDS011;26951;47.338;9.196;2023-09-19T08:06:40;1.13;;;1.02;;
41219;SDS011;26951;47.338;9.196;2023-09-19T08:09:24;0.75;;;0.70;;
41219;SDS011;26951;47.338;9.196;2023-09-19T08:12:08;0.60;;;0.60;;
41219;SDS011;26951;47.338;9.196;2023-09-19T08:17:39;1.35;;;0.90;;
41219;SDS011;26951;47.338;9.196;2023-09-19T08:20:23;0.70;;;0.70;;
41219;SDS011;26951;47.338;9.196;2023-09-19T08:23:07;1.50;;;1.10;;
41219;SDS011;26951;47.338;9.196;2023-09-19T08:25:55;0.80;;;0.80;;
41219;SDS011;26951;47.338;9.196;2023-09-19T08:28:40;1.48;;;1.13;;
41219;SDS011;26951;47.338;9.196;2023-09-19T08:31:25;1.08;;;0.90;;
41219;SDS011;26951;47.338;9.196;2023-09-19T08:34:10;0.93;;;0.73;;
41219;SDS011;26951;47.338;9.196;2023-09-19T08:36:54;1.00;;;0.90;;
41219;SDS011;26951;47.338;9.196;2023-09-19T08:39:42;1.27;;;0.70;;
41219;SDS011;26951;47.338;9.196;2023-09-19T08:42:27;0.52;;;0.50;;
41219;SDS011;26951;47.338;9.196;2023-09-19T08:45:11;0.90;;;0.85;;
41219;SDS011;26951;47.338;9.196;2023-09-19T08:50:51;0.70;;;0.70;;
41219;SDS011;26951;47.338;9.196;2023-09-19T08:53:42;1.33;;;0.75;;
41219;SDS011;26951;47.338;9.196;2023-09-19T08:56:36;1.30;;;0.82;;
41219;SDS011;26951;47.338;9.196;2023-09-19T08:59:23;0.75;;;0.75;;
41219;SDS011;26951;47.338;9.196;2023-09-19T09:02:11;0.82;;;0.80;;
41219;SDS011;26951;47.338;9.196;2023-09-19T09:04:56;0.60;;;0.60;;
41219;SDS011;26951;47.338;9.196;2023-09-19T09:07:42;0.90;;;0.70;;
41219;SDS011;26951;47.338;9.196;2023-09-19T09:13:12;0.80;;;0.80;;
41219;SDS011;26951;47.338;9.196;2023-09-19T09:15:57;0.88;;;0.85;;
41219;SDS011;26951;47.338;9.196;2023-09-19T09:18:43;0.80;;;0.80;;
41219;SDS011;26951;47.338;9.196;2023-09-19T09:21:28;0.80;;;0.80;;
41219;SDS011;26951;47.338;9.196;2023-09-19T09:27:17;0.88;;;0.77;;
41219;SDS011;26951;47.338;9.196;2023-09-19T09:30:01;1.35;;;1.00;;
41219;SDS011;26951;47.338;9.196;2023-09-19T09:35:31;1.35;;;0.80;;
41219;SDS011;26951;47.338;9.196;2023-09-19T09:38:15;0.95;;;0.90;;
41219;SDS011;26951;47.338;9.196;2023-09-19T09:41:02;0.65;;;0.65;;
41219;SDS011;26951;47.338;9.196;2023-09-19T09:43:49;1.75;;;1.00;;
41219;SDS011;26951;47.338;9.196;2023-09-19T09:46:35;1.20;;;1.10;;
41219;SDS011;26951;47.338;9.196;2023-09-19T09:49:37;2.95;;;1.10;;
41219;SDS011;26951;47.338;9.196;2023-09-19T09:52:22;1.10;;;1.00;;
41219;SDS011;26951;47.338;9.196;2023-09-19T09:55:07;1.10;;;1.00;;
41219;SDS011;26951;47.338;9.196;2023-09-19T09:58:15;0.80;;;0.75;;
41219;SDS011;26951;47.338;9.196;2023-09-19T10:01:03;2.88;;;1.00;;
41219;SDS011;26951;47.338;9.196;2023-09-19T10:03:57;2.25;;;1.00;;
41219;SDS011;26951;47.338;9.196;2023-09-19T10:06:43;1.15;;;0.93;;
41219;SDS011;26951;47.338;9.196;2023-09-19T10:09:47;1.35;;;1.20;;
41219;SDS011;26951;47.338;9.196;2023-09-19T10:12:32;1.10;;;0.90;;
41219;SDS011;26951;47.338;9.196;2023-09-19T10:15:21;1.10;;;1.00;;
41219;SDS011;26951;47.338;9.196;2023-09-19T10:18:10;1.00;;;0.90;;
41219;SDS011;26951;47.338;9.196;2023-09-19T10:21:01;1.33;;;1.00;;
41219;SDS011;26951;47.338;9.196;2023-09-19T10:23:48;1.35;;;1.25;;
41219;SDS011;26951;47.338;9.196;2023-09-19T10:26:36;1.35;;;0.95;;
41219;SDS011;26951;47.338;9.196;2023-09-19T10:29:20;0.80;;;0.80;;
41219;SDS011;26951;47.338;9.196;2023-09-19T10:32:05;1.45;;;1.00;;
41219;SDS011;26951;47.338;9.196;2023-09-19T10:34:52;1.38;;;0.95;;
41219;SDS011;26951;47.338;9.196;2023-09-19T10:37:39;3.03;;;1.27;;
41219;SDS011;26951;47.338;9.196;2023-09-19T10:40:24;2.83;;;1.40;;
41219;SDS011;26951;47.338;9.196;2023-09-19T10:43:18;1.95;;;1.23;;
41219;SDS011;26951;47.338;9.196;2023-09-19T10:46:07;1.15;;;1.05;;
41219;SDS011;26951;47.338;9.196;2023-09-19T10:48:58;1.58;;;1.20;;
41219;SDS011;26951;47.338;9.196;2023-09-19T10:51:46;1.30;;;1.10;;
41219;SDS011;26951;47.338;9.196;2023-09-19T10:54:33;1.58;;;1.25;;
41219;SDS011;26951;47.338;9.196;2023-09-19T10:57:23;1.30;;;0.90;;
41219;SDS011;26951;47.338;9.196;2023-09-19T11:00:08;2.58;;;1.20;;
41219;SDS011;26951;47.338;9.196;2023-09-19T11:03:20;1.20;;;1.10;;
41219;SDS011;26951;47.338;9.196;2023-09-19T11:06:17;1.50;;;1.20;;
41219;SDS011;26951;47.338;9.196;2023-09-19T11:09:06;1.63;;;1.25;;
41219;SDS011;26951;47.338;9.196;2023-09-19T11:11:59;1.25;;;1.15;;
41219;SDS011;26951;47.338;9.196;2023-09-19T11:14:44;1.20;;;1.02;;
41219;SDS011;26951;47.338;9.196;2023-09-19T11:17:32;1.50;;;1.25;;
41219;SDS011;26951;47.338;9.196;2023-09-19T11:20:26;1.23;;;0.90;;
41219;SDS011;26951;47.338;9.196;2023-09-19T11:23:23;1.20;;;1.10;;
41219;SDS011;26951;47.338;9.196;2023-09-19T11:26:10;2.05;;;0.98;;
41219;SDS011;26951;47.338;9.196;2023-09-19T11:29:32;1.10;;;1.00;;
41219;SDS011;26951;47.338;9.196;2023-09-19T11:32:17;1.80;;;1.00;;
41219;SDS011;26951;47.338;9.196;2023-09-19T11:38:58;1.48;;;1.15;;
41219;SDS011;26951;47.338;9.196;2023-09-19T11:41:44;2.55;;;1.17;;
41219;SDS011;26951;47.338;9.196;2023-09-19T11:44:33;0.98;;;0.82;;
41219;SDS011;26951;47.338;9.196;2023-09-19T11:47:18;1.13;;;0.98;;
41219;SDS011;26951;47.338;9.196;2023-09-19T11:50:02;1.33;;;1.05;;
41219;SDS011;26951;47.338;9.196;2023-09-19T11:52:47;1.40;;;1.07;;
41219;SDS011;26951;47.338;9.196;2023-09-19T11:55:32;1.33;;;1.00;;
41219;SDS011;26951;47.338;9.196;2023-09-19T11:58:17;1.52;;;1.10;;
41219;SDS011;26951;47.338;9.196;2023-09-19T12:01:03;1.40;;;1.17;;
41219;SDS011;26951;47.338;9.196;2023-09-19T12:03:52;1.83;;;1.10;;
41219;SDS011;26951;47.338;9.196;2023-09-19T12:06:38;1.73;;;1.00;;
41219;SDS011;26951;47.338;9.196;2023-09-19T12:09:27;1.92;;;1.10;;
41219;SDS011;26951;47.338;9.196;2023-09-19T12:12:11;0.98;;;0.85;;
41219;SDS011;26951;47.338;9.196;2023-09-19T12:15:03;1.02;;;0.90;;
41219;SDS011;26951;47.338;9.196;2023-09-19T12:17:49;1.17;;;0.95;;
41219;SDS011;26951;47.338;9.196;2023-09-19T12:20:43;2.47;;;1.20;;
41219;SDS011;26951;47.338;9.196;2023-09-19T12:23:30;2.17;;;1.17;;
41219;SDS011;26951;47.338;9.196;2023-09-19T12:26:14;1.00;;;0.90;;
41219;SDS011;26951;47.338;9.196;2023-09-19T12:28:58;1.27;;;0.90;;
41219;SDS011;26951;47.338;9.196;2023-09-19T12:31:52;1.23;;;1.13;;
41219;SDS011;26951;47.338;9.196;2023-09-19T12:34:41;2.17;;;1.30;;
41219;SDS011;26951;47.338;9.196;2023-09-19T12:37:28;1.92;;;1.00;;
41219;SDS011;26951;47.338;9.196;2023-09-19T12:40:13;1.17;;;0.77;;
41219;SDS011;26951;47.338;9.196;2023-09-19T12:43:01;0.95;;;0.82;;
41219;SDS011;26951;47.338;9.196;2023-09-19T12:45:49;2.05;;;1.20;;
41219;SDS011;26951;47.338;9.196;2023-09-19T12:48:34;1.23;;;1.00;;
41219;SDS011;26951;47.338;9.196;2023-09-19T12:51:19;1.33;;;1.08;;
41219;SDS011;26951;47.338;9.196;2023-09-19T12:54:06;1.00;;;0.90;;
41219;SDS011;26951;47.338;9.196;2023-09-19T12:56:51;1.38;;;0.98;;
41219;SDS011;26951;47.338;9.196;2023-09-19T12:59:37;1.00;;;0.90;;
41219;SDS011;26951;47.338;9.196;2023-09-19T13:02:21;2.15;;;0.95;;
41219;SDS011;26951;47.338;9.196;2023-09-19T13:05:07;1.17;;;0.77;;
41219;SDS011;26951;47.338;9.196;2023-09-19T13:07:54;1.30;;;1.08;;
41219;SDS011;26951;47.338;9.196;2023-09-19T13:14:15;1.13;;;0.82;;
41219;SDS011;26951;47.338;9.196;2023-09-19T13:17:07;0.75;;;0.60;;
41219;SDS011;26951;47.338;9.196;2023-09-19T13:20:06;1.45;;;0.93;;
41219;SDS011;26951;47.338;9.196;2023-09-19T13:23:28;1.20;;;1.10;;
41219;SDS011;26951;47.338;9.196;2023-09-19T13:26:12;1.17;;;0.80;;
41219;SDS011;26951;47.338;9.196;2023-09-19T13:28:56;1.15;;;0.90;;
41219;SDS011;26951;47.338;9.196;2023-09-19T13:31:40;1.20;;;1.00;;
41219;SDS011;26951;47.338;9.196;2023-09-19T13:34:25;2.22;;;0.77;;
41219;SDS011;26951;47.338;9.196;2023-09-19T13:37:10;1.50;;;1.23;;
41219;SDS011;26951;47.338;9.196;2023-09-19T13:39:55;1.30;;;0.93;;
41219;SDS011;26951;47.338;9.196;2023-09-19T13:45:25;1.45;;;0.93;;
41219;SDS011;26951;47.338;9.196;2023-09-19T13:48:10;1.10;;;0.90;;
41219;SDS011;26951;47.338;9.196;2023-09-19T13:50:57;1.50;;;1.17;;
41219;SDS011;26951;47.338;9.196;2023-09-19T13:53:42;1.10;;;0.80;;
41219;SDS011;26951;47.338;9.196;2023-09-19T13:56:26;0.52;;;0.52;;
41219;SDS011;26951;47.338;9.196;2023-09-19T13:59:11;1.40;;;1.10;;
41219;SDS011;26951;47.338;9.196;2023-09-19T14:01:56;0.95;;;0.88;;
41219;SDS011;26951;47.338;9.196;2023-09-19T14:04:41;1.15;;;0.93;;
41219;SDS011;26951;47.338;9.196;2023-09-19T14:07:25;2.72;;;0.80;;
41219;SDS011;26951;47.338;9.196;2023-09-19T14:10:09;1.67;;;1.20;;
41219;SDS011;26951;47.338;9.196;2023-09-19T14:12:54;0.88;;;0.70;;
41219;SDS011;26951;47.338;9.196;2023-09-19T14:15:38;1.20;;;0.90;;
41219;SDS011;26951;47.338;9.196;2023-09-19T14:18:22;1.20;;;0.85;;
41219;SDS011;26951;47.338;9.196;2023-09-19T14:21:07;2.20;;;0.93;;
41219;SDS011;26951;47.338;9.196;2023-09-19T14:23:54;1.20;;;0.77;;
41219;SDS011;26951;47.338;9.196;2023-09-19T14:26:39;0.63;;;0.63;;
41219;SDS011;26951;47.338;9.196;2023-09-19T14:29:23;1.38;;;0.70;;
41219;SDS011;26951;47.338;9.196;2023-09-19T14:32:08;1.92;;;0.90;;
41219;SDS011;26951;47.338;9.196;2023-09-19T14:34:52;1.15;;;0.80;;
41219;SDS011;26951;47.338;9.196;2023-09-19T14:37:36;0.80;;;0.68;;
41219;SDS011;26951;47.338;9.196;2023-09-19T14:40:22;1.90;;;1.08;;
41219;SDS011;26951;47.338;9.196;2023-09-19T14:43:06;1.33;;;0.63;;
41219;SDS011;26951;47.338;9.196;2023-09-19T14:45:52;0.75;;;0.68;;
41219;SDS011;26951;47.338;9.196;2023-09-19T14:48:36;0.77;;;0.77;;
41219;SDS011;26951;47.338;9.196;2023-09-19T14:51:21;1.30;;;0.60;;
41219;SDS011;26951;47.338;9.196;2023-09-19T14:54:05;2.17;;;0.80;;
41219;SDS011;26951;47.338;9.196;2023-09-19T14:56:51;0.60;;;0.60;;
41219;SDS011;26951;47.338;9.196;2023-09-19T14:59:47;0.70;;;0.70;;
41219;SDS011;26951;47.338;9.196;2023-09-19T15:02:33;1.83;;;0.70;;
41219;SDS011;26951;47.338;9.196;2023-09-19T15:05:17;0.80;;;0.68;;
41219;SDS011;26951;47.338;9.196;2023-09-19T15:08:02;0.63;;;0.63;;
41219;SDS011;26951;47.338;9.196;2023-09-19T15:10:50;0.77;;;0.60;;
41219;SDS011;26951;47.338;9.196;2023-09-19T15:13:37;1.80;;;0.90;;
41219;SDS011;26951;47.338;9.196;2023-09-19T15:16:21;1.33;;;0.80;;
41219;SDS011;26951;47.338;9.196;2023-09-19T15:19:05;0.95;;;0.90;;
41219;SDS011;26951;47.338;9.196;2023-09-19T15:24:35;1.30;;;0.90;;
41219;SDS011;26951;47.338;9.196;2023-09-19T15:27:19;1.08;;;0.90;;
41219;SDS011;26951;47.338;9.196;2023-09-19T15:30:03;0.65;;;0.65;;
41219;SDS011;26951;47.338;9.196;2023-09-19T15:32:48;1.77;;;1.10;;
41219;SDS011;26951;47.338;9.196;2023-09-19T15:35:35;1.35;;;0.90;;
41219;SDS011;26951;47.338;9.196;2023-09-19T15:41:04;0.85;;;0.85;;
41219;SDS011;26951;47.338;9.196;2023-09-19T15:43:49;1.10;;;0.95;;
41219;SDS011;26951;47.338;9.196;2023-09-19T15:46:33;0.85;;;0.80;;
41219;SDS011;26951;47.338;9.196;2023-09-19T15:49:19;1.33;;;0.90;;
41219;SDS011;26951;47.338;9.196;2023-09-19T15:54:48;1.58;;;0.80;;
41219;SDS011;26951;47.338;9.196;2023-09-19T15:57:38;1.33;;;0.70;;
41219;SDS011;26951;47.338;9.196;2023-09-19T16:00:22;1.00;;;0.80;;
41219;SDS011;26951;47.338;9.196;2023-09-19T16:03:06;0.85;;;0.80;;
41219;SDS011;26951;47.338;9.196;2023-09-19T16:05:50;0.93;;;0.80;;
41219;SDS011;26951;47.338;9.196;2023-09-19T16:08:35;0.80;;;0.80;;
41219;SDS011;26951;47.338;9.196;2023-09-19T16:11:22;1.08;;;1.00;;
41219;SDS011;26951;47.338;9.196;2023-09-19T16:14:06;1.10;;;1.00;;
41219;SDS011;26951;47.338;9.196;2023-09-19T16:16:51;1.70;;;1.02;;
41219;SDS011;26951;47.338;9.196;2023-09-19T16:19:35;1.35;;;0.95;;
41219;SDS011;26951;47.338;9.196;2023-09-19T16:22:20;2.70;;;1.48;;
41219;SDS011;26951;47.338;9.196;2023-09-19T16:25:04;1.05;;;0.95;;
41219;SDS011;26951;47.338;9.196;2023-09-19T16:27:49;0.95;;;0.80;;
41219;SDS011;26951;47.338;9.196;2023-09-19T16:30:34;1.45;;;0.98;;
41219;SDS011;26951;47.338;9.196;2023-09-19T16:33:18;1.42;;;1.08;;
41219;SDS011;26951;47.338;9.196;2023-09-19T16:36:02;1.65;;;1.00;;
41219;SDS011;26951;47.338;9.196;2023-09-19T16:38:51;1.90;;;1.23;;
41219;SDS011;26951;47.338;9.196;2023-09-19T16:41:35;1.20;;;0.85;;
41219;SDS011;26951;47.338;9.196;2023-09-19T16:44:20;1.10;;;0.93;;
41219;SDS011;26951;47.338;9.196;2023-09-19T16:47:04;1.05;;;0.90;;
41219;SDS011;26951;47.338;9.196;2023-09-19T16:49:48;1.10;;;1.00;;
41219;SDS011;26951;47.338;9.196;2023-09-19T16:52:33;1.10;;;0.90;;
41219;SDS011;26951;47.338;9.196;2023-09-19T16:55:17;0.88;;;0.80;;
41219;SDS011;26951;47.338;9.196;2023-09-19T16:58:04;1.75;;;1.00;;
41219;SDS011;26951;47.338;9.196;2023-09-19T17:00:48;1.90;;;1.20;;
41219;SDS011;26951;47.338;9.196;2023-09-19T17:03:33;1.63;;;1.20;;
41219;SDS011;26951;47.338;9.196;2023-09-19T17:06:18;1.02;;;0.90;;
41219;SDS011;26951;47.338;9.196;2023-09-19T17:09:05;1.45;;;1.10;;
41219;SDS011;26951;47.338;9.196;2023-09-19T17:11:49;1.10;;;1.00;;
41219;SDS011;26951;47.338;9.196;2023-09-19T17:14:34;1.65;;;0.90;;
41219;SDS011;26951;47.338;9.196;2023-09-19T17:17:19;3.40;;;1.73;;
41219;SDS011;26951;47.338;9.196;2023-09-19T17:20:03;1.25;;;1.00;;
41219;SDS011;26951;47.338;9.196;2023-09-19T17:22:49;1.10;;;0.95;;
41219;SDS011;26951;47.338;9.196;2023-09-19T17:25:33;1.50;;;1.10;;
41219;SDS011;26951;47.338;9.196;2023-09-19T17:28:17;1.95;;;0.90;;
41219;SDS011;26951;47.338;9.196;2023-09-19T17:31:03;1.75;;;1.20;;
41219;SDS011;26951;47.338;9.196;2023-09-19T17:33:54;1.00;;;0.80;;